Time;durP1;ratioP1;P1;durP2;ratioP2;P2;SDS_P1;SDS_P2;PMS_P1;PMS_P2;Temp;Humidity;BMP_temperature;BMP_pressure;BME280_temperature;BME280_humidity;BME280_pressure;Samples;Min_cycle;Max_cycle;Signal;HPM_P1;HPM_P2
2023/05/10 00:00:13;;;;;;;2.17;1.10;;;;;;;;;;5059081;28;20052;-70
2023/05/10 00:02:40;;;;;;;1.40;1.05;;;;;;;;;;5065383;28;20053;-70
2023/05/10 00:05:09;;;;;;;1.35;1.00;;;;;;;;;;5063487;28;20062;-70
2023/05/10 00:07:36;;;;;;;1.58;1.08;;;;;;;;;;5065144;28;20496;-70
2023/05/10 00:10:04;;;;;;;4.32;1.13;;;;;;;;;;5065154;28;20045;-71
2023/05/10 00:12:31;;;;;;;1.30;1.10;;;;;;;;;;5069723;28;20542;-71
2023/05/10 00:14:58;;;;;;;1.58;1.15;;;;;;;;;;5057340;28;20057;-70
2023/05/10 00:17:25;;;;;;;1.55;1.30;;;;;;;;;;5066306;28;20044;-70
2023/05/10 00:19:52;;;;;;;2.10;1.60;;;;;;;;;;5059257;28;20052;-71
2023/05/10 00:22:21;;;;;;;2.30;1.90;;;;;;;;;;5058569;28;20489;-71
2023/05/10 00:24:48;;;;;;;5.13;2.28;;;;;;;;;;5064659;28;20071;-71
2023/05/10 00:27:16;;;;;;;2.83;2.40;;;;;;;;;;5068116;28;20067;-70
2023/05/10 00:29:43;;;;;;;3.10;2.67;;;;;;;;;;5067603;28;20052;-71
2023/05/10 00:32:10;;;;;;;3.38;2.95;;;;;;;;;;5062716;28;20075;-71
2023/05/10 00:34:37;;;;;;;4.85;3.63;;;;;;;;;;5065752;28;20052;-71
2023/05/10 00:37:05;;;;;;;5.57;3.70;;;;;;;;;;5066875;28;20056;-71
2023/05/10 00:39:34;;;;;;;4.90;3.50;;;;;;;;;;5066913;28;20396;-71
2023/05/10 00:42:01;;;;;;;4.82;3.53;;;;;;;;;;5068923;28;20056;-71
2023/05/10 00:44:28;;;;;;;4.30;3.35;;;;;;;;;;5063871;28;20049;-71
2023/05/10 00:46:56;;;;;;;5.20;4.03;;;;;;;;;;5069738;28;20048;-71
2023/05/10 00:49:23;;;;;;;4.47;3.45;;;;;;;;;;5065686;28;20130;-71
2023/05/10 00:51:50;;;;;;;5.15;3.70;;;;;;;;;;5067460;28;20059;-71
2023/05/10 00:54:18;;;;;;;6.85;3.88;;;;;;;;;;5068803;28;20155;-71
2023/05/10 00:56:48;;;;;;;6.63;4.28;;;;;;;;;;5071340;28;20044;-71
2023/05/10 00:59:17;;;;;;;7.70;4.53;;;;;;;;;;5072172;28;20070;-71
2023/05/10 01:01:44;;;;;;;8.77;5.60;;;;;;;;;;5069342;28;20044;-71
2023/05/10 01:04:13;;;;;;;11.15;6.22;;;;;;;;;;5071370;28;20049;-71
2023/05/10 01:06:40;;;;;;;14.27;6.35;;;;;;;;;;5062736;28;20053;-71
2023/05/10 01:09:07;;;;;;;14.48;6.32;;;;;;;;;;5064792;28;20052;-71
2023/05/10 01:11:35;;;;;;;15.68;6.47;;;;;;;;;;5069509;28;20202;-71
2023/05/10 01:14:04;;;;;;;15.05;5.53;;;;;;;;;;5062019;28;20060;-71
2023/05/10 01:16:31;;;;;;;15.93;5.47;;;;;;;;;;5061939;28;20138;-70
2023/05/10 01:18:58;;;;;;;13.40;5.20;;;;;;;;;;5064339;28;20075;-71
2023/05/10 01:21:34;;;;;;;13.85;5.60;;;;;;;;;;5070827;28;20053;-71
2023/05/10 01:24:25;;;;;;;12.60;5.28;;;;;;;;;;5066760;28;20052;-71
2023/05/10 01:27:05;;;;;;;12.00;5.63;;;;;;;;;;5068598;28;20041;-71
2023/05/10 01:29:48;;;;;;;12.02;4.93;;;;;;;;;;5069147;28;20060;-70
2023/05/10 01:32:22;;;;;;;9.95;5.55;;;;;;;;;;5064997;28;20059;-70
2023/05/10 01:34:53;;;;;;;9.27;4.78;;;;;;;;;;5069556;28;20044;-71
2023/05/10 01:37:22;;;;;;;9.02;4.97;;;;;;;;;;5067983;28;20048;-71
2023/05/10 01:39:51;;;;;;;5.45;4.18;;;;;;;;;;5072458;28;20055;-71
2023/05/10 01:42:21;;;;;;;3.88;2.95;;;;;;;;;;5063804;28;20045;-70
2023/05/10 01:44:52;;;;;;;2.83;2.28;;;;;;;;;;5070147;28;20036;-71
2023/05/10 01:47:26;;;;;;;2.63;2.08;;;;;;;;;;5070646;28;20045;-71
2023/05/10 01:49:55;;;;;;;1.70;1.35;;;;;;;;;;5070914;28;20057;-71
2023/05/10 01:52:27;;;;;;;1.60;1.40;;;;;;;;;;5068333;28;20098;-71
2023/05/10 01:54:57;;;;;;;1.75;1.20;;;;;;;;;;5066571;28;20060;-71
2023/05/10 01:57:25;;;;;;;1.20;1.00;;;;;;;;;;5065985;28;20080;-71
2023/05/10 01:59:53;;;;;;;1.05;0.90;;;;;;;;;;5069349;28;20040;-71
2023/05/10 02:02:22;;;;;;;1.25;0.90;;;;;;;;;;5067174;28;20056;-71
2023/05/10 02:04:51;;;;;;;1.30;0.90;;;;;;;;;;5068765;28;20089;-71
2023/05/10 02:07:19;;;;;;;1.55;1.10;;;;;;;;;;5067062;28;20070;-71
2023/05/10 02:09:47;;;;;;;1.50;1.10;;;;;;;;;;5066759;28;20048;-71
2023/05/10 02:12:15;;;;;;;1.25;1.15;;;;;;;;;;5061669;28;20436;-71
2023/05/10 02:14:43;;;;;;;1.27;1.00;;;;;;;;;;5064148;28;20530;-71
2023/05/10 02:17:11;;;;;;;1.13;0.80;;;;;;;;;;5061817;28;20404;-70
2023/05/10 02:19:40;;;;;;;0.55;0.55;;;;;;;;;;5068103;28;20139;-70
2023/05/10 02:22:08;;;;;;;0.70;0.57;;;;;;;;;;5067489;28;20502;-71
2023/05/10 02:24:37;;;;;;;0.82;0.70;;;;;;;;;;5064443;28;20076;-70
2023/05/10 02:27:05;;;;;;;0.93;0.80;;;;;;;;;;5068412;28;20055;-70
2023/05/10 02:29:33;;;;;;;0.77;0.75;;;;;;;;;;5069539;28;20063;-71
2023/05/10 02:32:01;;;;;;;1.20;1.00;;;;;;;;;;5068280;28;20485;-71
2023/05/10 02:34:29;;;;;;;1.00;0.90;;;;;;;;;;5068427;28;20052;-71
2023/05/10 02:36:58;;;;;;;0.98;0.82;;;;;;;;;;5062669;28;20059;-71
2023/05/10 02:39:26;;;;;;;1.00;0.90;;;;;;;;;;5071198;28;20056;-71
2023/05/10 02:41:55;;;;;;;1.27;0.85;;;;;;;;;;5066643;28;20056;-71
2023/05/10 02:44:23;;;;;;;0.60;0.60;;;;;;;;;;5069097;28;20110;-71
2023/05/10 02:46:51;;;;;;;1.20;0.80;;;;;;;;;;5067799;28;20057;-71
2023/05/10 02:49:20;;;;;;;1.05;0.80;;;;;;;;;;5067721;28;20048;-71
2023/05/10 02:51:50;;;;;;;1.00;0.70;;;;;;;;;;5064979;28;20060;-71
2023/05/10 02:54:20;;;;;;;1.25;0.80;;;;;;;;;;5069493;28;20049;-71
2023/05/10 02:56:49;;;;;;;0.70;0.70;;;;;;;;;;5066480;28;20041;-71
2023/05/10 02:59:16;;;;;;;1.35;0.90;;;;;;;;;;5067231;28;20057;-71
2023/05/10 03:01:44;;;;;;;1.30;0.90;;;;;;;;;;5065416;28;20044;-71
2023/05/10 03:04:11;;;;;;;1.33;0.90;;;;;;;;;;5069069;28;20131;-71
2023/05/10 03:06:38;;;;;;;1.63;0.90;;;;;;;;;;5079245;28;20059;-71
2023/05/10 03:09:05;;;;;;;1.10;0.90;;;;;;;;;;5071400;28;20052;-71
2023/05/10 03:11:45;;;;;;;1.27;0.95;;;;;;;;;;5068102;28;20504;-71
2023/05/10 03:14:18;;;;;;;1.10;1.00;;;;;;;;;;5066653;28;20522;-71
2023/05/10 03:16:47;;;;;;;1.95;1.50;;;;;;;;;;5062129;28;20048;-71
2023/05/10 03:19:18;;;;;;;3.10;1.70;;;;;;;;;;5066315;28;20084;-71
2023/05/10 03:21:49;;;;;;;4.50;1.75;;;;;;;;;;5068438;28;20086;-71
2023/05/10 03:24:16;;;;;;;3.97;2.10;;;;;;;;;;5064127;28;20051;-71
2023/05/10 03:26:45;;;;;;;4.03;2.60;;;;;;;;;;5069473;28;20059;-71
2023/05/10 03:29:13;;;;;;;3.63;2.65;;;;;;;;;;5068053;28;20056;-71
2023/05/10 03:31:40;;;;;;;3.53;2.88;;;;;;;;;;5068560;28;20048;-71
2023/05/10 03:34:07;;;;;;;4.13;2.90;;;;;;;;;;5063392;28;20045;-71
2023/05/10 03:36:35;;;;;;;3.20;2.75;;;;;;;;;;5068768;28;20060;-71
2023/05/10 03:39:02;;;;;;;3.03;2.55;;;;;;;;;;5068736;28;20075;-71
2023/05/10 03:41:29;;;;;;;4.22;2.55;;;;;;;;;;5069820;28;20045;-71
2023/05/10 03:43:58;;;;;;;3.55;2.50;;;;;;;;;;5060678;28;20496;-71
2023/05/10 03:46:25;;;;;;;2.88;2.55;;;;;;;;;;5068301;28;20048;-71
2023/05/10 03:48:52;;;;;;;3.00;2.55;;;;;;;;;;5065532;28;20048;-71
2023/05/10 03:51:20;;;;;;;3.80;2.53;;;;;;;;;;5069174;28;20053;-71
2023/05/10 03:53:47;;;;;;;4.75;2.90;;;;;;;;;;5063400;28;20093;-71
2023/05/10 03:56:15;;;;;;;4.45;3.08;;;;;;;;;;5065446;28;20049;-71
2023/05/10 03:58:42;;;;;;;4.40;3.25;;;;;;;;;;5068328;28;20044;-71
2023/05/10 04:01:11;;;;;;;4.18;2.85;;;;;;;;;;5066705;28;20161;-71
2023/05/10 04:03:38;;;;;;;2.83;2.28;;;;;;;;;;5064436;28;20090;-71
2023/05/10 04:06:08;;;;;;;2.28;1.63;;;;;;;;;;5065150;28;20052;-71
2023/05/10 04:08:35;;;;;;;1.38;1.20;;;;;;;;;;5068063;28;20490;-71
2023/05/10 04:11:09;;;;;;;1.50;1.10;;;;;;;;;;5065855;28;20452;-71
2023/05/10 04:13:36;;;;;;;0.80;0.63;;;;;;;;;;5067669;28;20059;-71
2023/05/10 04:16:03;;;;;;;0.93;0.80;;;;;;;;;;5062218;28;20057;-71
2023/05/10 04:18:32;;;;;;;0.70;0.70;;;;;;;;;;5070591;28;20057;-71
2023/05/10 04:20:59;;;;;;;0.80;0.70;;;;;;;;;;5066558;28;20049;-71
2023/05/10 04:23:27;;;;;;;0.80;0.73;;;;;;;;;;5062674;28;20052;-71
2023/05/10 04:25:54;;;;;;;1.10;1.00;;;;;;;;;;5068719;28;20052;-71
2023/05/10 04:28:21;;;;;;;1.35;1.00;;;;;;;;;;5067531;28;20064;-71
2023/05/10 04:30:49;;;;;;;2.17;1.25;;;;;;;;;;5067690;28;20060;-71
2023/05/10 04:33:16;;;;;;;1.80;1.52;;;;;;;;;;5071182;28;20048;-71
2023/05/10 04:35:45;;;;;;;2.58;1.98;;;;;;;;;;5073416;28;20442;-71
2023/05/10 04:38:12;;;;;;;2.10;1.88;;;;;;;;;;5071176;28;20040;-71
2023/05/10 04:40:39;;;;;;;2.75;2.17;;;;;;;;;;5069829;28;20052;-71
2023/05/10 04:43:06;;;;;;;3.65;3.03;;;;;;;;;;5070694;28;20045;-71
2023/05/10 04:45:34;;;;;;;4.93;3.50;;;;;;;;;;5067456;28;20059;-71
2023/05/10 04:48:01;;;;;;;6.13;3.95;;;;;;;;;;5063137;28;20135;-71
2023/05/10 04:50:28;;;;;;;9.52;5.53;;;;;;;;;;5069042;28;20048;-71
2023/05/10 04:52:57;;;;;;;8.98;5.95;;;;;;;;;;5073515;28;20048;-71
2023/05/10 04:55:24;;;;;;;8.27;6.10;;;;;;;;;;5064959;28;20045;-71
2023/05/10 04:57:51;;;;;;;7.72;4.90;;;;;;;;;;5068117;28;20052;-71
2023/05/10 05:00:19;;;;;;;9.77;6.07;;;;;;;;;;5070119;28;20048;-71
2023/05/10 05:02:46;;;;;;;7.75;4.10;;;;;;;;;;5063727;28;20076;-71
2023/05/10 05:05:13;;;;;;;4.72;3.63;;;;;;;;;;5057810;28;20385;-71
2023/05/10 05:07:41;;;;;;;4.72;3.30;;;;;;;;;;5073272;28;20052;-71
2023/05/10 05:10:10;;;;;;;4.72;3.50;;;;;;;;;;5072685;28;20423;-71
2023/05/10 05:12:37;;;;;;;3.90;2.72;;;;;;;;;;5069445;28;20123;-71
2023/05/10 05:15:05;;;;;;;4.03;2.85;;;;;;;;;;5061197;28;20380;-71
2023/05/10 05:17:32;;;;;;;4.93;3.25;;;;;;;;;;5069774;28;20131;-71
2023/05/10 05:19:59;;;;;;;4.25;2.72;;;;;;;;;;5072684;28;20094;-72
2023/05/10 05:22:27;;;;;;;4.07;2.80;;;;;;;;;;5069156;28;20144;-72
2023/05/10 05:24:55;;;;;;;4.07;3.00;;;;;;;;;;5070625;28;20071;-72
2023/05/10 05:27:25;;;;;;;4.85;2.38;;;;;;;;;;5065546;28;20077;-70
2023/05/10 05:29:54;;;;;;;7.82;2.70;;;;;;;;;;5066997;28;20438;-71
2023/05/10 05:32:21;;;;;;;5.75;2.40;;;;;;;;;;5066436;28;20403;-71
2023/05/10 05:34:48;;;;;;;3.28;2.30;;;;;;;;;;5068843;28;20543;-72
2023/05/10 05:37:16;;;;;;;4.22;1.88;;;;;;;;;;5069758;28;20048;-72
2023/05/10 05:39:43;;;;;;;3.80;2.10;;;;;;;;;;5067350;28;20531;-72
2023/05/10 05:42:11;;;;;;;4.32;2.08;;;;;;;;;;5068043;28;20055;-72
2023/05/10 05:44:40;;;;;;;3.08;1.98;;;;;;;;;;5069284;28;20040;-72
2023/05/10 05:47:07;;;;;;;4.22;2.33;;;;;;;;;;5069001;28;20044;-71
2023/05/10 05:49:35;;;;;;;3.50;2.20;;;;;;;;;;5065229;28;20053;-71
2023/05/10 05:52:02;;;;;;;3.53;2.30;;;;;;;;;;5064791;28;20049;-71
2023/05/10 05:54:30;;;;;;;3.83;2.22;;;;;;;;;;5067838;28;20036;-72
2023/05/10 05:56:57;;;;;;;2.80;1.70;;;;;;;;;;5066212;28;20068;-72
2023/05/10 05:59:25;;;;;;;3.17;1.92;;;;;;;;;;5067616;28;20064;-72
2023/05/10 06:01:54;;;;;;;3.55;1.90;;;;;;;;;;5067602;28;20401;-71
2023/05/10 06:04:21;;;;;;;2.25;1.40;;;;;;;;;;5065655;28;20049;-72
2023/05/10 06:06:48;;;;;;;1.83;1.25;;;;;;;;;;5076192;28;20071;-72
2023/05/10 06:09:15;;;;;;;2.10;1.23;;;;;;;;;;5068686;28;20051;-72
2023/05/10 06:11:43;;;;;;;2.08;1.20;;;;;;;;;;5069469;28;20476;-72
2023/05/10 06:14:10;;;;;;;1.77;1.10;;;;;;;;;;5067610;28;20053;-72
2023/05/10 06:16:37;;;;;;;4.43;1.20;;;;;;;;;;5058150;28;20063;-72
2023/05/10 06:19:06;;;;;;;2.17;1.40;;;;;;;;;;5067423;28;20056;-72
2023/05/10 06:21:33;;;;;;;2.13;1.40;;;;;;;;;;5067590;28;20051;-72
2023/05/10 06:24:00;;;;;;;2.33;1.33;;;;;;;;;;5062421;28;20060;-72
2023/05/10 06:26:27;;;;;;;1.60;1.10;;;;;;;;;;5068804;28;20048;-72
2023/05/10 06:28:55;;;;;;;2.25;1.40;;;;;;;;;;5069777;28;20067;-72
2023/05/10 06:31:22;;;;;;;1.85;1.00;;;;;;;;;;5066156;28;20044;-71
2023/05/10 06:33:49;;;;;;;1.65;1.08;;;;;;;;;;5065944;28;20052;-72
2023/05/10 06:36:18;;;;;;;4.43;1.30;;;;;;;;;;5073193;28;20055;-72
2023/05/10 06:38:45;;;;;;;1.45;1.00;;;;;;;;;;5062405;28;20039;-71
2023/05/10 06:41:14;;;;;;;3.88;1.65;;;;;;;;;;5063734;28;20408;-72
2023/05/10 06:43:43;;;;;;;2.90;1.65;;;;;;;;;;5064288;28;20052;-72
2023/05/10 06:46:10;;;;;;;2.65;1.60;;;;;;;;;;5065988;28;20551;-71
2023/05/10 06:48:37;;;;;;;2.03;1.17;;;;;;;;;;5064815;28;20040;-72
2023/05/10 06:51:04;;;;;;;2.00;1.35;;;;;;;;;;5063134;28;20059;-72
2023/05/10 06:53:33;;;;;;;3.83;1.33;;;;;;;;;;5063589;28;20063;-71
2023/05/10 06:56:00;;;;;;;2.90;1.30;;;;;;;;;;5065435;28;20049;-71
2023/05/10 06:58:28;;;;;;;2.10;1.27;;;;;;;;;;5069157;28;20048;-71
2023/05/10 07:00:55;;;;;;;2.17;1.20;;;;;;;;;;5057677;28;20527;-71
2023/05/10 07:03:22;;;;;;;4.10;1.38;;;;;;;;;;5058143;28;20087;-71
2023/05/10 07:05:50;;;;;;;3.00;1.17;;;;;;;;;;5057561;28;20093;-71
2023/05/10 07:08:17;;;;;;;1.48;1.00;;;;;;;;;;5060348;28;20056;-71
2023/05/10 07:10:46;;;;;;;1.40;1.00;;;;;;;;;;5060185;28;20060;-71
2023/05/10 07:13:13;;;;;;;2.00;1.20;;;;;;;;;;5063609;28;20048;-71
2023/05/10 07:15:41;;;;;;;1.60;1.15;;;;;;;;;;5058989;28;20049;-71
2023/05/10 07:18:08;;;;;;;2.72;1.73;;;;;;;;;;5059863;28;20371;-71
2023/05/10 07:20:35;;;;;;;3.83;1.80;;;;;;;;;;5058001;28;20048;-71
2023/05/10 07:23:02;;;;;;;3.22;1.95;;;;;;;;;;5057458;28;20052;-71
2023/05/10 07:25:30;;;;;;;3.60;1.80;;;;;;;;;;5060320;28;20052;-71
2023/05/10 07:27:58;;;;;;;3.83;1.90;;;;;;;;;;5063212;28;20060;-71
2023/05/10 07:30:25;;;;;;;2.58;1.63;;;;;;;;;;5063617;28;20056;-71
2023/05/10 07:32:53;;;;;;;4.32;2.15;;;;;;;;;;5056205;28;20068;-71
2023/05/10 07:35:20;;;;;;;2.83;1.88;;;;;;;;;;5056830;28;20420;-71
2023/05/10 07:37:47;;;;;;;4.68;2.63;;;;;;;;;;5062535;28;20045;-70
2023/05/10 07:40:14;;;;;;;4.53;2.28;;;;;;;;;;5061513;28;20066;-70
2023/05/10 07:42:42;;;;;;;4.45;2.70;;;;;;;;;;5059981;28;20516;-71
2023/05/10 07:45:11;;;;;;;5.18;2.53;;;;;;;;;;5061574;28;20041;-71
2023/05/10 07:47:38;;;;;;;4.28;2.60;;;;;;;;;;5063090;28;20055;-71
2023/05/10 07:50:06;;;;;;;4.40;2.70;;;;;;;;;;5058083;28;20049;-71
2023/05/10 07:52:33;;;;;;;5.55;3.05;;;;;;;;;;5062334;28;20049;-71
2023/05/10 07:55:00;;;;;;;4.88;2.75;;;;;;;;;;5060896;28;20048;-71
2023/05/10 07:57:28;;;;;;;4.85;2.53;;;;;;;;;;5056462;28;20056;-70
2023/05/10 07:59:55;;;;;;;5.18;2.85;;;;;;;;;;5061528;28;20139;-71
2023/05/10 08:02:23;;;;;;;3.78;2.10;;;;;;;;;;5069605;28;20080;-70
2023/05/10 08:04:51;;;;;;;4.63;1.77;;;;;;;;;;5068608;28;20484;-71
2023/05/10 08:07:18;;;;;;;4.05;1.95;;;;;;;;;;5068018;28;20133;-71
2023/05/10 08:09:46;;;;;;;6.18;3.35;;;;;;;;;;5072447;28;20087;-71
2023/05/10 08:12:13;;;;;;;4.03;1.98;;;;;;;;;;5071532;28;20037;-70
2023/05/10 08:14:40;;;;;;;3.47;1.88;;;;;;;;;;5065693;28;20491;-71
2023/05/10 08:17:07;;;;;;;2.75;1.73;;;;;;;;;;5069899;28;20583;-71
2023/05/10 08:19:36;;;;;;;2.92;2.10;;;;;;;;;;5065899;28;20127;-71
2023/05/10 08:22:03;;;;;;;3.28;2.10;;;;;;;;;;5068816;28;20052;-71
2023/05/10 08:24:30;;;;;;;2.40;1.67;;;;;;;;;;5063850;28;20566;-71
2023/05/10 08:26:58;;;;;;;2.58;1.52;;;;;;;;;;5068222;28;20045;-71
2023/05/10 08:29:25;;;;;;;2.88;1.50;;;;;;;;;;5062875;28;20049;-71
2023/05/10 08:31:52;;;;;;;2.42;1.63;;;;;;;;;;5063806;28;20551;-71
2023/05/10 08:34:19;;;;;;;3.63;2.20;;;;;;;;;;5067908;28;20059;-71
2023/05/10 08:36:48;;;;;;;2.47;1.95;;;;;;;;;;5070640;28;20495;-71
2023/05/10 08:39:15;;;;;;;4.00;1.80;;;;;;;;;;5067048;28;20044;-71
2023/05/10 08:41:45;;;;;;;4.60;2.65;;;;;;;;;;5074179;28;20479;-71
2023/05/10 08:44:12;;;;;;;6.68;3.83;;;;;;;;;;5066619;28;20052;-71
2023/05/10 08:46:43;;;;;;;5.75;3.47;;;;;;;;;;5065182;28;20041;-71
2023/05/10 08:49:14;;;;;;;4.50;3.08;;;;;;;;;;5069710;28;20140;-71
2023/05/10 08:51:46;;;;;;;5.25;3.10;;;;;;;;;;5068777;28;20053;-71
2023/05/10 08:54:14;;;;;;;5.97;3.40;;;;;;;;;;5071853;28;20048;-71
2023/05/10 08:56:42;;;;;;;7.03;4.53;;;;;;;;;;5069524;28;20060;-71
2023/05/10 08:59:09;;;;;;;5.78;4.03;;;;;;;;;;5068685;28;20490;-71
2023/05/10 09:01:37;;;;;;;5.72;4.07;;;;;;;;;;5064614;28;20052;-71
2023/05/10 09:04:04;;;;;;;6.35;3.85;;;;;;;;;;5067126;28;20060;-71
2023/05/10 09:06:32;;;;;;;10.07;4.22;;;;;;;;;;5063654;28;20048;-71
2023/05/10 09:08:59;;;;;;;8.35;4.20;;;;;;;;;;5070436;28;20511;-71
2023/05/10 09:11:29;;;;;;;6.05;4.22;;;;;;;;;;5069061;28;20052;-71
2023/05/10 09:13:57;;;;;;;6.53;4.53;;;;;;;;;;5068153;28;20067;-71
2023/05/10 09:16:25;;;;;;;7.15;4.07;;;;;;;;;;5062292;28;20047;-71
2023/05/10 09:18:52;;;;;;;6.57;4.43;;;;;;;;;;5067210;28;20063;-71
2023/05/10 09:21:20;;;;;;;5.90;4.15;;;;;;;;;;5066992;28;20045;-71
2023/05/10 09:23:49;;;;;;;5.82;3.88;;;;;;;;;;5068143;28;20087;-71
2023/05/10 09:26:17;;;;;;;5.25;4.10;;;;;;;;;;5063093;28;20496;-71
2023/05/10 09:28:56;;;;;;;6.93;3.90;;;;;;;;;;5068573;28;20040;-71
2023/05/10 09:31:24;;;;;;;7.45;4.00;;;;;;;;;;5065390;28;20049;-71
2023/05/10 09:33:52;;;;;;;6.47;3.65;;;;;;;;;;5069581;28;20052;-71
2023/05/10 09:36:19;;;;;;;7.47;3.50;;;;;;;;;;5070520;28;20139;-71
2023/05/10 09:38:47;;;;;;;6.40;3.70;;;;;;;;;;5065286;28;20582;-71
2023/05/10 09:41:18;;;;;;;4.95;3.28;;;;;;;;;;5069215;28;20105;-70
2023/05/10 09:43:46;;;;;;;7.28;3.78;;;;;;;;;;5068516;28;20101;-70
2023/05/10 09:46:14;;;;;;;5.88;3.90;;;;;;;;;;5069378;28;20484;-71
2023/05/10 09:48:43;;;;;;;5.50;3.42;;;;;;;;;;5068408;28;20508;-70
2023/05/10 09:51:11;;;;;;;4.43;3.40;;;;;;;;;;5068856;28;20106;-71
2023/05/10 09:53:38;;;;;;;6.63;3.83;;;;;;;;;;5059441;28;20074;-70
2023/05/10 09:56:05;;;;;;;6.57;3.35;;;;;;;;;;5067239;28;20044;-71
2023/05/10 09:58:33;;;;;;;6.20;3.60;;;;;;;;;;5064506;28;20080;-71
2023/05/10 10:01:00;;;;;;;5.55;3.80;;;;;;;;;;5069979;28;20049;-71
2023/05/10 10:03:30;;;;;;;4.93;3.20;;;;;;;;;;5066191;28;20048;-72
2023/05/10 10:05:58;;;;;;;5.57;3.47;;;;;;;;;;5065175;28;20060;-70
2023/05/10 10:08:25;;;;;;;7.20;3.67;;;;;;;;;;5069715;28;20052;-70
2023/05/10 10:10:53;;;;;;;7.32;3.80;;;;;;;;;;5068617;28;20044;-70
2023/05/10 10:13:20;;;;;;;7.25;3.97;;;;;;;;;;5064823;28;20052;-70
2023/05/10 10:15:50;;;;;;;7.95;4.43;;;;;;;;;;5066532;28;20059;-70
2023/05/10 10:18:18;;;;;;;7.28;4.30;;;;;;;;;;5067387;28;20052;-71
2023/05/10 10:20:47;;;;;;;7.82;4.15;;;;;;;;;;5066469;28;20058;-70
2023/05/10 10:23:14;;;;;;;7.57;4.05;;;;;;;;;;5066793;28;20056;-70
2023/05/10 10:25:41;;;;;;;6.80;4.03;;;;;;;;;;5070344;28;20474;-70
2023/05/10 10:28:17;;;;;;;6.30;4.00;;;;;;;;;;5065602;28;20052;-70
2023/05/10 10:30:45;;;;;;;5.55;4.05;;;;;;;;;;5068438;28;20049;-71
2023/05/10 10:33:19;;;;;;;7.68;4.00;;;;;;;;;;5066299;28;20125;-70
2023/05/10 10:35:48;;;;;;;6.03;3.70;;;;;;;;;;5060354;28;20057;-70
2023/05/10 10:38:16;;;;;;;4.20;3.30;;;;;;;;;;5065866;28;20047;-70
2023/05/10 10:40:43;;;;;;;5.13;3.70;;;;;;;;;;5067753;28;20079;-70
2023/05/10 10:43:24;;;;;;;5.57;3.58;;;;;;;;;;5066951;28;20040;-70
2023/05/10 10:46:06;;;;;;;4.70;3.33;;;;;;;;;;5063299;28;20072;-70
2023/05/10 10:48:33;;;;;;;5.30;3.28;;;;;;;;;;5063848;28;20056;-70
2023/05/10 10:51:02;;;;;;;4.15;2.97;;;;;;;;;;5066206;28;20052;-70
2023/05/10 10:53:29;;;;;;;3.63;2.80;;;;;;;;;;5062697;28;20048;-70
2023/05/10 10:56:07;;;;;;;3.80;2.92;;;;;;;;;;5064786;28;20579;-70
2023/05/10 10:58:35;;;;;;;5.32;3.50;;;;;;;;;;5065948;28;20487;-70
2023/05/10 11:01:15;;;;;;;4.22;3.40;;;;;;;;;;5069372;28;20135;-70
2023/05/10 11:03:56;;;;;;;5.40;3.53;;;;;;;;;;5065972;28;20507;-70
2023/05/10 11:06:33;;;;;;;6.03;3.58;;;;;;;;;;5063329;28;20491;-70
2023/05/10 11:09:00;;;;;;;4.53;3.38;;;;;;;;;;5067431;28;20130;-70
2023/05/10 11:11:28;;;;;;;5.88;3.15;;;;;;;;;;5065610;28;20063;-70
2023/05/10 11:13:55;;;;;;;4.57;2.97;;;;;;;;;;5063743;28;20056;-70
2023/05/10 11:16:24;;;;;;;5.72;3.42;;;;;;;;;;5057715;28;20083;-70
2023/05/10 11:19:02;;;;;;;4.30;3.33;;;;;;;;;;5065193;28;20101;-70
2023/05/10 11:21:30;;;;;;;4.57;3.40;;;;;;;;;;5061152;28;20051;-70
2023/05/10 11:23:59;;;;;;;5.45;3.47;;;;;;;;;;5054687;28;20060;-70
2023/05/10 11:26:27;;;;;;;5.32;3.67;;;;;;;;;;5075200;28;20051;-70
2023/05/10 11:28:56;;;;;;;5.55;3.75;;;;;;;;;;5063678;28;20060;-70
2023/05/10 11:31:26;;;;;;;5.63;4.28;;;;;;;;;;5065262;28;20040;-70
2023/05/10 11:33:54;;;;;;;4.30;3.30;;;;;;;;;;5066306;28;20699;-70
2023/05/10 11:36:22;;;;;;;5.22;3.65;;;;;;;;;;5064982;28;20504;-70
2023/05/10 11:38:49;;;;;;;5.75;3.90;;;;;;;;;;5060842;28;20082;-70
2023/05/10 11:41:21;;;;;;;7.03;4.82;;;;;;;;;;5062773;28;20538;-69
2023/05/10 11:43:50;;;;;;;7.70;4.60;;;;;;;;;;5064017;28;20050;-69
2023/05/10 11:46:20;;;;;;;7.15;4.90;;;;;;;;;;5063563;28;20045;-70
2023/05/10 11:48:48;;;;;;;7.88;4.70;;;;;;;;;;5064626;28;20079;-70
2023/05/10 11:51:15;;;;;;;7.10;4.57;;;;;;;;;;5067405;28;20068;-69
2023/05/10 11:53:43;;;;;;;6.85;4.20;;;;;;;;;;5067068;28;20098;-69
2023/05/10 11:56:10;;;;;;;5.55;4.25;;;;;;;;;;5066823;28;20056;-69
2023/05/10 11:58:39;;;;;;;5.45;4.00;;;;;;;;;;5064896;28;20043;-70
2023/05/10 12:01:08;;;;;;;5.50;3.47;;;;;;;;;;5065158;28;20051;-69
2023/05/10 12:03:36;;;;;;;5.35;3.70;;;;;;;;;;5065550;28;20076;-69
2023/05/10 12:06:04;;;;;;;9.35;4.82;;;;;;;;;;5064730;28;20076;-69
2023/05/10 12:08:31;;;;;;;7.00;4.65;;;;;;;;;;5067228;28;20032;-69
2023/05/10 12:11:06;;;;;;;7.25;3.88;;;;;;;;;;5063008;28;20048;-69
2023/05/10 12:13:33;;;;;;;5.38;3.88;;;;;;;;;;5061936;28;20056;-69
2023/05/10 12:16:13;;;;;;;5.20;3.47;;;;;;;;;;5060575;28;20045;-69
2023/05/10 12:18:41;;;;;;;4.28;3.28;;;;;;;;;;5068144;28;20051;-69
2023/05/10 12:21:08;;;;;;;6.80;3.72;;;;;;;;;;5074828;28;20045;-69
2023/05/10 12:23:36;;;;;;;5.20;3.85;;;;;;;;;;5061148;28;20546;-69
2023/05/10 12:26:04;;;;;;;6.13;3.95;;;;;;;;;;5067561;28;20036;-70
2023/05/10 12:28:31;;;;;;;4.88;3.60;;;;;;;;;;5067040;28;20541;-70
2023/05/10 12:30:59;;;;;;;4.70;3.42;;;;;;;;;;5066835;28;20049;-70
2023/05/10 12:33:27;;;;;;;5.82;3.45;;;;;;;;;;5066425;28;20044;-70
2023/05/10 12:35:56;;;;;;;5.28;3.63;;;;;;;;;;5066963;28;20695;-70
2023/05/10 12:38:30;;;;;;;6.20;3.60;;;;;;;;;;5066907;28;20456;-70
2023/05/10 12:40:58;;;;;;;5.82;3.53;;;;;;;;;;5067063;28;20048;-70
2023/05/10 12:43:25;;;;;;;6.32;3.92;;;;;;;;;;5063102;28;20044;-70
2023/05/10 12:45:52;;;;;;;5.00;3.47;;;;;;;;;;5064737;28;20048;-70
2023/05/10 12:48:20;;;;;;;5.30;3.92;;;;;;;;;;5066425;28;20611;-70
2023/05/10 12:50:48;;;;;;;4.68;3.50;;;;;;;;;;5064524;28;20056;-70
2023/05/10 12:53:16;;;;;;;5.40;3.85;;;;;;;;;;5069878;28;20060;-70
2023/05/10 12:55:43;;;;;;;5.00;3.47;;;;;;;;;;5069396;28;20053;-70
2023/05/10 12:58:10;;;;;;;5.07;3.78;;;;;;;;;;5069236;28;20045;-70
2023/05/10 13:00:38;;;;;;;5.88;4.20;;;;;;;;;;5065343;28;20052;-70
2023/05/10 13:03:06;;;;;;;6.68;4.72;;;;;;;;;;5068559;28;20053;-70
2023/05/10 13:05:33;;;;;;;5.82;4.75;;;;;;;;;;5066527;28;20056;-70
2023/05/10 13:08:02;;;;;;;6.72;4.50;;;;;;;;;;5064119;28;20447;-71
2023/05/10 13:10:31;;;;;;;5.28;4.20;;;;;;;;;;5069561;28;20127;-71
2023/05/10 13:12:58;;;;;;;5.13;3.55;;;;;;;;;;5067383;28;20658;-71
2023/05/10 13:15:26;;;;;;;5.93;4.57;;;;;;;;;;5070378;28;20048;-71
2023/05/10 13:17:53;;;;;;;5.75;4.25;;;;;;;;;;5070599;28;20413;-71
2023/05/10 13:20:20;;;;;;;5.18;3.70;;;;;;;;;;5071294;28;20059;-71
2023/05/10 13:22:48;;;;;;;4.35;3.60;;;;;;;;;;5066385;28;20440;-71
2023/05/10 13:25:16;;;;;;;3.92;2.85;;;;;;;;;;5063434;28;20049;-71
2023/05/10 13:27:43;;;;;;;3.42;3.00;;;;;;;;;;5066236;28;20037;-70
2023/05/10 13:30:12;;;;;;;3.13;2.75;;;;;;;;;;5070440;28;20048;-70
2023/05/10 13:32:39;;;;;;;2.60;2.28;;;;;;;;;;5063008;28;20422;-71
2023/05/10 13:35:07;;;;;;;2.67;1.95;;;;;;;;;;5068423;28;20044;-70
2023/05/10 13:37:37;;;;;;;2.38;1.75;;;;;;;;;;5066171;28;20045;-70
2023/05/10 13:40:05;;;;;;;2.40;2.00;;;;;;;;;;5068510;28;20059;-70
2023/05/10 13:42:34;;;;;;;2.55;2.00;;;;;;;;;;5066851;28;20056;-70
2023/05/10 13:45:01;;;;;;;2.60;2.10;;;;;;;;;;5069185;28;20114;-70
2023/05/10 13:47:28;;;;;;;2.83;2.33;;;;;;;;;;5066316;28;20052;-70
2023/05/10 13:49:57;;;;;;;2.50;2.20;;;;;;;;;;5065139;28;20052;-70
2023/05/10 13:52:24;;;;;;;2.20;1.90;;;;;;;;;;5070259;28;20049;-70
2023/05/10 13:54:54;;;;;;;2.28;1.90;;;;;;;;;;5063125;28;20057;-70
2023/05/10 13:57:21;;;;;;;2.53;2.10;;;;;;;;;;5069650;28;20106;-70
2023/05/10 13:59:50;;;;;;;2.58;2.20;;;;;;;;;;5068393;28;20044;-70
2023/05/10 14:02:17;;;;;;;3.42;2.30;;;;;;;;;;5067521;28;20044;-70
2023/05/10 14:04:44;;;;;;;2.25;2.05;;;;;;;;;;5062666;28;20072;-70
2023/05/10 14:07:12;;;;;;;2.25;1.83;;;;;;;;;;5062950;28;20052;-70
2023/05/10 14:09:39;;;;;;;2.35;2.15;;;;;;;;;;5068553;28;20048;-71
2023/05/10 14:12:06;;;;;;;2.83;2.10;;;;;;;;;;5070846;28;20419;-68
2023/05/10 14:14:33;;;;;;;1.25;1.15;;;;;;;;;;5067823;28;20041;-68
2023/05/10 14:17:02;;;;;;;2.08;1.88;;;;;;;;;;5062787;28;20063;-68
2023/05/10 14:19:32;;;;;;;2.28;1.77;;;;;;;;;;5065840;28;20049;-68
2023/05/10 14:21:59;;;;;;;1.83;1.67;;;;;;;;;;5066444;28;20045;-68
2023/05/10 14:24:26;;;;;;;2.63;2.05;;;;;;;;;;5067897;28;20562;-68
2023/05/10 14:26:53;;;;;;;2.55;2.10;;;;;;;;;;5069727;28;20053;-68
2023/05/10 14:29:21;;;;;;;2.53;1.90;;;;;;;;;;5068892;28;20122;-68
2023/05/10 14:31:48;;;;;;;2.13;1.92;;;;;;;;;;5069651;28;20143;-67
2023/05/10 14:34:16;;;;;;;2.45;1.80;;;;;;;;;;5068847;28;20182;-67
2023/05/10 14:36:44;;;;;;;2.70;1.90;;;;;;;;;;5070856;28;20071;-67
2023/05/10 14:39:12;;;;;;;1.40;1.30;;;;;;;;;;5072450;28;20399;-67
2023/05/10 14:41:42;;;;;;;2.00;1.40;;;;;;;;;;5073089;28;20545;-67
2023/05/10 14:44:09;;;;;;;2.03;1.67;;;;;;;;;;5073637;28;20048;-67
2023/05/10 14:46:37;;;;;;;2.47;1.63;;;;;;;;;;5069500;28;20049;-67
2023/05/10 14:49:04;;;;;;;2.10;1.45;;;;;;;;;;5069642;28;20037;-70